Time;durP1;ratioP1;P1;durP2;ratioP2;P2;SDS_P1;SDS_P2;PMS_P1;PMS_P2;Temp;Humidity;BMP_temperature;BMP_pressure;BME280_temperature;BME280_humidity;BME280_pressure;Samples;Min_cycle;Max_cycle;Signal;HPM_P1;HPM_P2
2022/12/05 00:00:34;;;;;;;50.73;21.00;;;;;;;5.55;83.26;100263.22;5033345;28;20414;-74
2022/12/05 00:03:04;;;;;;;49.03;21.27;;;;;;;5.53;83.11;100284.09;5020729;28;20428;-75
2022/12/05 00:05:29;;;;;;;47.50;21.88;;;;;;;5.52;83.38;100287.03;5028861;28;20474;-75
2022/12/05 00:07:55;;;;;;;49.33;20.70;;;;;;;5.49;83.29;100287.47;5033062;28;20482;-74
2022/12/05 00:10:20;;;;;;;52.67;21.07;;;;;;;5.48;83.45;100286.63;5032889;28;20395;-75
2022/12/05 00:12:45;;;;;;;52.90;21.93;;;;;;;5.48;83.50;100280.44;5018733;28;20416;-74
2022/12/05 00:15:11;;;;;;;57.95;21.85;;;;;;;5.49;83.30;100274.03;5027765;28;20762;-75
2022/12/05 00:17:39;;;;;;;51.25;20.65;;;;;;;5.47;83.80;100276.09;5032211;28;20395;-75
2022/12/05 00:20:05;;;;;;;51.47;21.88;;;;;;;5.47;83.55;100281.47;5022879;28;20818;-75
2022/12/05 00:22:33;;;;;;;52.90;21.65;;;;;;;5.47;83.45;100282.28;5018981;28;20411;-74
2022/12/05 00:24:59;;;;;;;52.53;21.02;;;;;;;5.49;83.47;100276.72;5025430;28;20902;-75
2022/12/05 00:27:24;;;;;;;54.27;21.70;;;;;;;5.53;83.74;100281.41;5027157;28;20434;-74
2022/12/05 00:29:49;;;;;;;57.03;21.37;;;;;;;5.55;83.48;100292.78;5032603;28;20762;-75
2022/12/05 00:32:14;;;;;;;57.25;22.23;;;;;;;5.57;83.79;100289.88;5026550;28;20899;-74
2022/12/05 00:34:40;;;;;;;56.93;21.87;;;;;;;5.56;83.57;100290.94;5010975;28;20833;-75
2022/12/05 00:37:05;;;;;;;55.03;22.10;;;;;;;5.54;83.32;100288.44;5028187;28;20422;-75
2022/12/05 00:39:30;;;;;;;51.60;20.07;;;;;;;5.54;83.61;100293.81;5032344;28;20394;-74
2022/12/05 00:41:55;;;;;;;50.13;20.40;;;;;;;5.48;83.43;100297.38;5028110;28;20402;-74
2022/12/05 00:44:21;;;;;;;50.92;21.35;;;;;;;5.47;83.45;100301.09;5018892;28;20422;-74
2022/12/05 00:46:46;;;;;;;59.90;21.37;;;;;;;5.48;83.61;100297.38;5027764;28;20472;-75
2022/12/05 00:49:11;;;;;;;53.13;21.40;;;;;;;5.50;83.89;100291.81;5032243;28;20390;-74
2022/12/05 00:51:39;;;;;;;56.57;22.83;;;;;;;5.52;83.54;100292.41;5029589;28;20854;-75
2022/12/05 00:54:08;;;;;;;55.13;22.58;;;;;;;5.50;83.69;100283.75;5023750;28;20421;-75
2022/12/05 00:56:34;;;;;;;47.05;20.63;;;;;;;5.51;83.56;100293.44;5031149;28;20387;-75
2022/12/05 00:59:00;;;;;;;55.30;20.57;;;;;;;5.51;83.81;100286.19;5002048;28;20763;-75
2022/12/05 01:01:46;;;;;;;55.38;20.08;;;;;;;5.55;83.58;100287.41;5032027;28;20473;-74
2022/12/05 01:04:15;;;;;;;53.72;20.85;;;;;;;5.56;83.61;100290.94;5020783;28;20412;-75
2022/12/05 01:06:41;;;;;;;47.55;19.15;;;;;;;5.56;83.33;100288.25;5029967;28;20471;-75
2022/12/05 01:09:07;;;;;;;53.77;20.13;;;;;;;5.51;83.97;100290.75;5031918;28;20387;-75
2022/12/05 01:11:32;;;;;;;54.67;21.80;;;;;;;5.55;84.23;100287.41;5022979;28;20405;-74
2022/12/05 01:13:58;;;;;;;52.07;20.47;;;;;;;5.57;83.85;100276.44;5024448;28;20415;-74
2022/12/05 01:16:30;;;;;;;56.73;21.87;;;;;;;5.58;83.89;100272.72;5015681;28;20404;-74
2022/12/05 01:18:57;;;;;;;46.83;20.83;;;;;;;5.62;83.37;100284.69;5031622;28;20472;-74
2022/12/05 01:21:23;;;;;;;57.03;23.15;;;;;;;5.64;83.33;100290.66;5030362;28;20746;-74
2022/12/05 01:23:49;;;;;;;54.50;21.38;;;;;;;5.57;83.79;100293.41;5031562;28;20415;-74
2022/12/05 01:26:16;;;;;;;60.10;22.77;;;;;;;5.59;83.56;100301.25;5030671;28;20398;-75
2022/12/05 01:28:42;;;;;;;53.80;22.85;;;;;;;5.54;84.12;100304.56;5031494;28;20399;-75
2022/12/05 01:31:16;;;;;;;60.97;23.00;;;;;;;5.57;84.04;100306.84;5027758;28;20395;-75
2022/12/05 01:33:41;;;;;;;69.38;23.35;;;;;;;5.59;84.11;100312.00;5024751;28;20383;-74
2022/12/05 01:36:11;;;;;;;57.87;23.47;;;;;;;5.62;84.04;100309.72;5030370;28;20463;-74
2022/12/05 01:38:38;;;;;;;59.53;22.25;;;;;;;5.63;83.36;100313.22;5031546;28;20419;-75
2022/12/05 01:41:05;;;;;;;64.53;23.33;;;;;;;5.63;83.55;100315.91;5028985;28;20953;-74
2022/12/05 01:43:31;;;;;;;60.03;21.98;;;;;;;5.62;83.69;100315.09;5012642;28;20919;-75
2022/12/05 01:45:56;;;;;;;60.63;23.77;;;;;;;5.62;83.62;100312.41;5028972;28;20932;-74
2022/12/05 01:48:28;;;;;;;47.05;19.95;;;;;;;5.66;83.73;100312.78;5031107;28;20380;-74
2022/12/05 01:50:54;;;;;;;60.45;23.33;;;;;;;5.67;83.65;100315.25;5031200;28;20395;-74
2022/12/05 01:53:20;;;;;;;51.95;21.70;;;;;;;5.67;83.44;100309.03;5025824;28;20835;-75
2022/12/05 01:55:48;;;;;;;64.10;23.47;;;;;;;5.63;83.41;100311.34;5029301;28;20395;-75
2022/12/05 01:58:14;;;;;;;61.20;22.90;;;;;;;5.62;84.16;100316.94;5031114;28;20387;-75
2022/12/05 02:00:40;;;;;;;53.13;21.85;;;;;;;5.62;83.55;100320.47;5031019;28;20399;-74
2022/12/05 02:03:08;;;;;;;55.67;22.20;;;;;;;5.61;83.83;100316.13;5019649;28;20420;-74
2022/12/05 02:05:35;;;;;;;51.70;20.58;;;;;;;5.64;83.97;100321.06;5027677;28;20379;-75
2022/12/05 02:08:08;;;;;;;50.80;20.17;;;;;;;5.66;83.36;100318.16;5029465;28;20399;-74
2022/12/05 02:10:39;;;;;;;48.72;20.90;;;;;;;5.66;83.95;100326.25;5030295;28;20805;-75
2022/12/05 02:13:43;;;;;;;53.53;22.27;;;;;;;5.64;83.57;100322.91;5015415;28;20420;-75
2022/12/05 02:16:46;;;;;;;54.70;21.67;;;;;;;5.62;83.56;100328.53;5002827;28;20421;-74
2022/12/05 02:19:41;;;;;;;49.58;21.83;;;;;;;5.54;83.68;100336.84;5026094;28;20430;-74
2022/12/05 02:22:09;;;;;;;45.38;19.08;;;;;;;5.55;83.70;100343.03;5025728;28;20423;-75
2022/12/05 02:24:52;;;;;;;44.83;20.63;;;;;;;5.60;83.92;100349.41;5026447;28;20470;-74
2022/12/05 02:27:43;;;;;;;44.20;18.40;;;;;;;5.63;84.05;100348.97;5029711;28;20447;-74
2022/12/05 02:30:16;;;;;;;45.22;19.48;;;;;;;5.61;83.72;100353.75;5030631;28;20711;-75
2022/12/05 02:32:50;;;;;;;45.15;19.13;;;;;;;5.63;83.82;100367.78;5024373;28;20900;-75
2022/12/05 02:35:29;;;;;;;45.67;18.70;;;;;;;5.65;83.89;100362.22;5029232;28;20466;-75
2022/12/05 02:38:09;;;;;;;37.88;17.70;;;;;;;5.64;83.51;100361.38;5026597;28;20395;-75
2022/12/05 02:40:37;;;;;;;37.42;18.80;;;;;;;5.63;83.55;100356.25;5021921;28;20386;-74
2022/12/05 02:43:29;;;;;;;39.97;18.20;;;;;;;5.67;83.12;100357.44;5027576;28;20433;-75
2022/12/05 02:45:59;;;;;;;42.38;18.23;;;;;;;5.65;83.40;100351.47;5030259;28;20411;-75
2022/12/05 02:48:27;;;;;;;36.10;17.73;;;;;;;5.61;83.42;100356.44;5029156;28;20488;-75
2022/12/05 02:50:55;;;;;;;33.10;16.75;;;;;;;5.64;83.66;100353.31;5029345;28;20860;-75
2022/12/05 02:53:23;;;;;;;37.35;17.65;;;;;;;5.67;83.67;100357.44;5030597;28;20391;-74
2022/12/05 02:55:49;;;;;;;38.15;17.75;;;;;;;5.66;83.67;100369.25;5030427;28;20398;-75
2022/12/05 02:58:20;;;;;;;39.07;18.50;;;;;;;5.60;83.55;100373.59;5025695;28;20787;-74
2022/12/05 03:00:48;;;;;;;36.88;17.77;;;;;;;5.49;84.16;100376.16;5028077;28;20388;-75
2022/12/05 03:03:18;;;;;;;34.03;17.70;;;;;;;5.52;84.27;100367.66;5030228;28;20762;-75
2022/12/05 03:06:00;;;;;;;33.78;16.73;;;;;;;5.54;84.13;100377.16;5024553;28;20422;-75
2022/12/05 03:08:32;;;;;;;34.47;16.80;;;;;;;5.52;84.14;100371.19;5027335;28;20411;-75
2022/12/05 03:10:58;;;;;;;30.92;15.98;;;;;;;5.54;83.99;100370.94;5019953;28;20426;-75
2022/12/05 03:13:28;;;;;;;32.00;15.80;;;;;;;5.56;83.85;100369.72;5032685;28;20406;-74
2022/12/05 03:15:59;;;;;;;26.52;14.88;;;;;;;5.63;83.45;100365.09;5033864;28;20395;-75
2022/12/05 03:18:29;;;;;;;23.97;13.93;;;;;;;5.62;83.63;100351.91;5030382;28;20514;-75
2022/12/05 03:21:18;;;;;;;31.02;15.73;;;;;;;5.69;83.57;100360.75;5033954;28;20749;-75
2022/12/05 03:23:54;;;;;;;31.27;17.38;;;;;;;5.72;83.28;100357.63;5030560;28;20430;-75
2022/12/05 03:26:34;;;;;;;27.58;15.40;;;;;;;5.76;83.08;100353.47;5032944;28;20388;-75
2022/12/05 03:29:16;;;;;;;29.42;15.02;;;;;;;5.78;83.12;100356.75;5032777;28;20520;-75
2022/12/05 03:31:56;;;;;;;24.15;14.60;;;;;;;5.73;83.29;100359.25;5033800;28;20477;-75
2022/12/05 03:34:48;;;;;;;27.02;15.65;;;;;;;5.71;83.18;100358.66;5005481;28;20441;-74
2022/12/05 03:37:29;;;;;;;26.02;14.50;;;;;;;5.72;83.33;100369.22;5033260;28;20878;-74
2022/12/05 03:40:14;;;;;;;26.50;14.57;;;;;;;5.75;82.59;100368.78;5028786;28;20395;-75
2022/12/05 03:42:48;;;;;;;25.63;14.02;;;;;;;5.78;83.02;100364.00;5024690;28;20419;-75
2022/12/05 03:45:21;;;;;;;25.15;14.25;;;;;;;5.78;82.94;100355.94;5033452;28;20402;-74
2022/12/05 03:48:22;;;;;;;24.00;15.10;;;;;;;5.79;82.80;100360.28;5027262;28;20420;-74
2022/12/05 03:50:50;;;;;;;23.98;14.38;;;;;;;5.78;82.50;100364.84;5029295;28;20399;-74
2022/12/05 03:53:20;;;;;;;25.02;14.88;;;;;;;5.78;83.05;100359.47;5033125;28;20406;-75
2022/12/05 03:55:53;;;;;;;26.00;14.90;;;;;;;5.77;82.77;100363.16;5032358;28;20389;-75
2022/12/05 03:58:35;;;;;;;24.52;13.60;;;;;;;5.79;83.01;100352.22;5031168;28;20403;-75
2022/12/05 04:01:04;;;;;;;23.60;14.00;;;;;;;5.80;83.06;100360.06;5033282;28;20376;-75
2022/12/05 04:03:39;;;;;;;24.40;14.23;;;;;;;5.82;82.73;100362.53;5032047;28;20797;-75
2022/12/05 04:06:14;;;;;;;24.27;14.23;;;;;;;5.81;83.04;100361.72;5007337;28;20418;-74
2022/12/05 04:08:47;;;;;;;22.13;13.30;;;;;;;5.82;83.15;100362.53;5014850;28;20742;-75
2022/12/05 04:11:17;;;;;;;26.15;13.75;;;;;;;5.83;83.04;100353.44;5028551;28;20391;-75
2022/12/05 04:13:49;;;;;;;25.05;14.63;;;;;;;5.85;82.90;100356.72;5016009;28;20376;-74
2022/12/05 04:19:11;;;;;;;24.80;15.03;;;;;;;5.84;83.23;100358.59;5007336;28;21044;-74
2022/12/05 04:21:46;;;;;;;27.05;14.77;;;;;;;5.85;82.71;100354.88;5003681;28;20391;-74
2022/12/05 04:27:21;;;;;;;28.75;14.30;;;;;;;5.79;82.71;100371.03;5031895;28;20386;-75
2022/12/05 04:30:00;;;;;;;26.25;15.18;;;;;;;5.76;83.23;100369.63;5012669;28;20411;-75
2022/12/05 04:32:37;;;;;;;27.30;15.07;;;;;;;5.61;82.98;100375.25;5025669;28;20876;-75
2022/12/05 04:35:10;;;;;;;27.33;15.50;;;;;;;5.68;83.52;100377.91;5030361;28;20466;-74
2022/12/05 04:37:41;;;;;;;23.13;14.07;;;;;;;5.76;82.85;100388.44;5032553;28;20794;-74
2022/12/05 04:40:17;;;;;;;23.73;14.75;;;;;;;5.74;83.09;100391.31;5023370;28;20399;-74
2022/12/05 04:42:45;;;;;;;25.35;13.98;;;;;;;5.62;82.86;100402.97;5031595;28;20419;-75
2022/12/05 04:45:13;;;;;;;22.17;13.77;;;;;;;5.62;83.27;100403.81;5002328;28;20421;-74
2022/12/05 04:47:44;;;;;;;24.38;13.88;;;;;;;5.71;83.66;100407.06;5032589;28;20391;-75
2022/12/05 04:50:12;;;;;;;24.52;13.73;;;;;;;5.74;83.48;100395.88;5000940;28;20405;-75
2022/12/05 04:52:38;;;;;;;24.40;13.63;;;;;;;5.80;82.71;100396.88;5058380;28;20754;-75
2022/12/05 04:55:09;;;;;;;25.13;14.07;;;;;;;5.82;82.92;100394.81;5032378;28;20388;-75
2022/12/05 04:57:58;;;;;;;23.45;13.52;;;;;;;5.82;82.69;100400.19;5032210;28;20912;-75
2022/12/05 05:00:27;;;;;;;23.52;12.70;;;;;;;5.82;82.83;100402.88;5025668;28;20789;-75
2022/12/05 05:03:18;;;;;;;22.30;13.48;;;;;;;5.82;82.69;100403.72;5006501;28;20912;-75
2022/12/05 05:05:47;;;;;;;22.20;14.17;;;;;;;5.82;82.69;100403.72;5032001;28;20457;-75
2022/12/05 05:08:22;;;;;;;20.35;12.88;;;;;;;5.84;82.90;100407.00;5016295;28;20445;-75
2022/12/05 05:10:57;;;;;;;21.02;12.82;;;;;;;5.84;82.77;100400.78;5003310;28;20388;-74
2022/12/05 05:13:23;;;;;;;19.60;12.45;;;;;;;5.82;82.71;100389.44;5031982;28;20426;-74
2022/12/05 05:15:48;;;;;;;20.88;13.45;;;;;;;5.82;82.93;100403.72;5031950;28;20391;-75
2022/12/05 05:18:13;;;;;;;22.83;13.63;;;;;;;5.82;82.92;100397.50;5011469;28;20422;-75
2022/12/05 05:20:39;;;;;;;23.47;13.87;;;;;;;5.81;83.23;100395.84;5009204;28;20395;-75
2022/12/05 05:23:04;;;;;;;25.13;13.73;;;;;;;5.82;82.84;100400.19;5000019;28;20888;-75
2022/12/05 05:25:29;;;;;;;25.57;14.00;;;;;;;5.83;83.28;100412.59;5004570;28;20420;-74
2022/12/05 05:27:55;;;;;;;31.63;16.83;;;;;;;5.79;82.68;100422.97;5010798;28;20401;-75
2022/12/05 05:30:22;;;;;;;31.83;16.75;;;;;;;5.67;83.44;100428.16;5010354;28;20418;-75
2022/12/05 05:32:48;;;;;;;28.25;16.95;;;;;;;5.59;83.73;100436.50;5019858;28;20434;-75
2022/12/05 05:35:14;;;;;;;29.37;17.47;;;;;;;5.63;83.63;100434.22;5006792;28;20432;-75
2022/12/05 05:37:40;;;;;;;30.05;18.48;;;;;;;5.73;83.84;100438.06;5002186;28;20453;-74
2022/12/05 05:40:07;;;;;;;25.33;16.67;;;;;;;5.79;82.92;100441.78;4998595;28;20416;-74
2022/12/05 05:42:33;;;;;;;24.92;16.08;;;;;;;5.75;83.07;100440.56;4997336;28;20495;-75
2022/12/05 05:44:58;;;;;;;25.70;16.30;;;;;;;5.79;83.00;100449.84;5004916;28;20417;-74
2022/12/05 05:47:23;;;;;;;24.13;14.73;;;;;;;5.83;82.41;100445.66;5008599;28;20420;-76
2022/12/05 05:49:48;;;;;;;25.53;15.10;;;;;;;5.85;82.50;100443.59;5002394;28;20896;-76
2022/12/05 05:52:14;;;;;;;23.60;14.27;;;;;;;5.86;82.51;100447.97;5002450;28;20412;-76
2022/12/05 05:54:39;;;;;;;26.45;14.23;;;;;;;5.86;82.67;100442.59;4999507;28;20429;-75
2022/12/05 05:57:05;;;;;;;22.35;13.25;;;;;;;5.87;82.54;100440.72;5007856;28;20404;-76
2022/12/05 05:59:30;;;;;;;23.63;13.60;;;;;;;5.88;82.22;100448.59;5005909;28;20393;-77
2022/12/05 06:01:55;;;;;;;24.60;14.20;;;;;;;5.83;82.56;100451.06;4999613;28;20747;-79
2022/12/05 06:04:21;;;;;;;24.10;14.33;;;;;;;5.83;82.34;100448.34;5000095;28;20913;-74
2022/12/05 06:06:46;;;;;;;22.00;13.63;;;;;;;5.85;82.59;100442.78;5014164;28;20397;-75
2022/12/05 06:09:11;;;;;;;24.60;13.30;;;;;;;5.85;82.45;100440.91;5026341;28;20769;-75
2022/12/05 06:11:36;;;;;;;27.97;15.10;;;;;;;5.82;82.47;100444.03;5019411;28;20411;-76
2022/12/05 06:14:02;;;;;;;26.63;14.95;;;;;;;5.83;82.51;100436.81;5007364;28;20402;-76
2022/12/05 06:16:29;;;;;;;26.47;15.50;;;;;;;5.82;82.88;100446.72;5030647;28;20403;-75
2022/12/05 06:18:55;;;;;;;28.27;15.88;;;;;;;5.82;82.48;100457.50;5005444;28;20402;-76
2022/12/05 06:21:21;;;;;;;23.38;13.88;;;;;;;5.81;82.46;100455.00;5014079;28;20455;-75
2022/12/05 06:23:47;;;;;;;23.55;13.52;;;;;;;5.80;82.70;100461.41;5021927;28;20465;-75
2022/12/05 06:26:14;;;;;;;24.67;14.57;;;;;;;5.83;82.74;100458.31;5029048;28;20874;-75
2022/12/05 06:28:41;;;;;;;24.38;14.60;;;;;;;5.82;82.94;100468.25;5021423;28;20403;-75
2022/12/05 06:31:12;;;;;;;22.92;14.50;;;;;;;5.84;82.82;100468.00;5026757;28;20883;-75
2022/12/05 06:33:38;;;;;;;23.25;13.85;;;;;;;5.82;82.67;100479.00;5023889;28;20411;-74
2022/12/05 06:36:06;;;;;;;20.90;12.57;;;;;;;5.83;82.55;100475.25;5030609;28;20469;-75
2022/12/05 06:38:31;;;;;;;24.60;13.68;;;;;;;5.83;82.83;100475.25;5016283;28;20823;-74
2022/12/05 06:40:57;;;;;;;21.20;12.50;;;;;;;5.83;82.75;100482.53;5003509;28;20441;-74
2022/12/05 06:43:22;;;;;;;21.57;12.73;;;;;;;5.81;82.75;100490.78;5015180;28;21213;-75
2022/12/05 06:45:47;;;;;;;22.10;12.40;;;;;;;5.79;83.00;100492.03;5004694;28;20505;-75
2022/12/05 06:48:13;;;;;;;23.17;13.53;;;;;;;5.76;83.12;100490.63;5012154;28;20417;-75
2022/12/05 06:50:38;;;;;;;20.53;13.27;;;;;;;5.78;83.01;100493.06;5026508;28;20402;-75
2022/12/05 06:53:03;;;;;;;22.97;13.10;;;;;;;5.79;82.89;100494.72;5021364;28;20410;-75
2022/12/05 06:55:28;;;;;;;19.42;12.32;;;;;;;5.81;83.00;100501.53;5007101;28;20394;-75
2022/12/05 06:57:54;;;;;;;22.97;12.30;;;;;;;5.82;83.00;100502.38;5017253;28;20389;-75
2022/12/05 07:03:03;;;;;;;22.65;13.07;;;;;;;5.79;83.10;100498.25;5006671;28;21146;-75
2022/12/05 07:05:28;;;;;;;22.10;12.93;;;;;;;5.73;83.32;100501.78;5017117;28;20491;-75
2022/12/05 07:07:53;;;;;;;22.23;12.43;;;;;;;5.73;83.47;100499.06;5024841;28;20409;-75
2022/12/05 07:10:19;;;;;;;20.43;12.60;;;;;;;5.81;83.54;100506.09;5019208;28;20395;-74
2022/12/05 07:12:44;;;;;;;23.25;13.25;;;;;;;5.86;82.82;100517.88;5027024;28;20394;-73
2022/12/05 07:15:09;;;;;;;21.80;13.07;;;;;;;5.88;82.68;100517.69;5034038;28;20395;-74
2022/12/05 07:17:37;;;;;;;21.93;13.10;;;;;;;5.90;83.24;100512.91;5020731;28;20745;-74
2022/12/05 07:20:04;;;;;;;39.40;15.25;;;;;;;5.86;82.88;100534.03;5023478;28;20754;-74
2022/12/05 07:22:29;;;;;;;22.88;13.80;;;;;;;5.86;82.70;100522.47;5018496;28;20410;-74
2022/12/05 07:24:54;;;;;;;23.17;13.50;;;;;;;5.93;82.81;100528.66;5033826;28;20468;-74
2022/12/05 07:27:20;;;;;;;23.63;14.30;;;;;;;5.96;82.79;100528.22;5029686;28;20405;-74
2022/12/05 07:29:45;;;;;;;24.13;14.07;;;;;;;5.97;82.91;100538.75;5010692;28;20451;-74
2022/12/05 07:32:10;;;;;;;27.77;14.63;;;;;;;5.98;82.84;100526.97;5007265;28;20405;-74
2022/12/05 07:34:37;;;;;;;25.30;14.83;;;;;;;6.01;82.45;100533.78;5019597;28;20839;-74
2022/12/05 07:37:03;;;;;;;26.08;14.82;;;;;;;6.02;82.57;100538.13;5025109;28;20403;-74
2022/12/05 07:39:28;;;;;;;25.10;14.93;;;;;;;6.03;82.56;100542.44;5015751;28;20395;-74
2022/12/05 07:41:54;;;;;;;20.98;13.90;;;;;;;6.03;82.53;100545.13;5030314;28;20441;-75
2022/12/05 07:44:19;;;;;;;23.60;14.47;;;;;;;5.99;82.39;100550.16;5033135;28;20422;-74
2022/12/05 07:46:44;;;;;;;24.73;13.73;;;;;;;5.90;83.00;100556.78;4999939;28;20415;-74
2022/12/05 07:49:10;;;;;;;23.60;14.68;;;;;;;5.88;83.49;100549.97;5019895;28;20474;-74
2022/12/05 07:51:35;;;;;;;22.60;13.83;;;;;;;5.91;83.55;100546.84;4999747;28;20431;-74
2022/12/05 07:54:01;;;;;;;21.47;13.07;;;;;;;5.97;83.23;100546.00;4992470;28;20415;-74
2022/12/05 07:56:26;;;;;;;29.47;14.20;;;;;;;6.05;83.13;100546.59;4995046;28;20418;-74
2022/12/05 07:58:52;;;;;;;25.10;15.25;;;;;;;6.07;82.70;100554.44;5002547;28;20749;-75
2022/12/05 08:01:23;;;;;;;25.58;13.88;;;;;;;6.00;83.16;100548.25;4994106;28;20439;-74
2022/12/05 08:03:51;;;;;;;25.27;14.43;;;;;;;5.98;83.08;100547.66;4994339;28;20936;-74
2022/12/05 08:06:18;;;;;;;22.70;13.25;;;;;;;6.02;82.72;100551.56;5019117;28;20415;-74
2022/12/05 08:08:44;;;;;;;21.95;13.88;;;;;;;6.06;82.72;100558.19;4986398;28;20422;-74
2022/12/05 08:11:13;;;;;;;21.47;13.03;;;;;;;6.07;82.78;100559.81;4989321;28;20422;-74
2022/12/05 08:13:39;;;;;;;22.65;12.93;;;;;;;6.08;83.09;100562.31;4986784;28;20414;-74
2022/12/05 08:16:08;;;;;;;22.38;13.07;;;;;;;6.10;82.30;100556.69;4988365;28;20412;-74
2022/12/05 08:18:33;;;;;;;27.77;14.38;;;;;;;6.09;82.79;100552.38;4986097;28;20500;-74
2022/12/05 08:21:16;;;;;;;22.97;14.10;;;;;;;6.16;82.63;100545.06;4987016;28;20426;-74
2022/12/05 08:23:42;;;;;;;26.15;14.98;;;;;;;6.20;82.45;100549.00;4994517;28;20472;-74
2022/12/05 08:26:13;;;;;;;29.23;15.70;;;;;;;6.20;82.56;100563.28;5008964;28;20424;-74
2022/12/05 08:28:39;;;;;;;24.90;15.05;;;;;;;6.18;82.35;100561.84;5010148;28;20417;-74
2022/12/05 08:31:07;;;;;;;26.90;14.98;;;;;;;6.13;82.39;100558.97;5009931;28;20414;-74
2022/12/05 08:33:32;;;;;;;34.92;17.33;;;;;;;6.16;82.51;100570.13;5008468;28;20393;-74
2022/12/05 08:36:03;;;;;;;27.33;15.18;;;;;;;6.17;82.76;100565.56;4995757;28;20505;-74
2022/12/05 08:38:29;;;;;;;28.48;15.98;;;;;;;6.15;82.62;100575.72;4991450;28;20406;-74
2022/12/05 08:40:54;;;;;;;27.23;14.90;;;;;;;6.12;82.41;100571.63;4991057;28;20472;-74
2022/12/05 08:43:20;;;;;;;28.23;15.63;;;;;;;6.16;82.11;100572.81;5014283;28;20926;-73
2022/12/05 08:45:49;;;;;;;32.20;16.10;;;;;;;6.21;82.47;100564.94;4998050;28;20760;-74
2022/12/05 08:48:14;;;;;;;41.05;19.02;;;;;;;6.23;82.54;100570.09;4995930;28;22113;-74
2022/12/05 08:50:39;;;;;;;29.47;15.73;;;;;;;6.30;81.96;100580.84;5004176;28;20586;-74
2022/12/05 08:53:05;;;;;;;43.17;19.03;;;;;;;6.35;82.25;100587.25;5009872;28;20795;-75
2022/12/05 08:55:33;;;;;;;32.30;16.67;;;;;;;6.37;82.00;100577.06;5011392;28;20439;-74
2022/12/05 08:57:58;;;;;;;30.88;17.27;;;;;;;6.43;82.18;100578.91;4999678;28;20418;-75
2022/12/05 09:00:24;;;;;;;31.97;17.53;;;;;;;6.48;81.95;100579.09;4996475;28;20412;-74
2022/12/05 09:02:50;;;;;;;38.83;18.13;;;;;;;6.51;81.62;100591.31;5000576;28;20971;-74
2022/12/05 09:05:16;;;;;;;45.00;20.55;;;;;;;6.51;81.74;100591.31;5010868;28;20457;-74
2022/12/05 09:07:41;;;;;;;36.45;18.35;;;;;;;6.49;81.91;100599.56;4993500;28;20760;-75
2022/12/05 09:10:07;;;;;;;41.57;20.13;;;;;;;6.53;81.64;100594.59;5003066;28;20409;-74
2022/12/05 09:12:35;;;;;;;39.47;19.43;;;;;;;6.54;81.67;100610.53;5012593;28;20444;-74
2022/12/05 09:15:00;;;;;;;27.85;17.08;;;;;;;6.44;82.06;100615.56;5007623;28;20417;-75
2022/12/05 09:17:25;;;;;;;31.17;17.33;;;;;;;6.40;82.48;100617.03;5004469;28;20420;-75
2022/12/05 09:19:51;;;;;;;29.33;16.67;;;;;;;6.43;82.29;100621.16;4998644;28;22603;-74
2022/12/05 09:22:17;;;;;;;32.05;17.30;;;;;;;6.38;82.30;100621.81;5020003;28;20429;-75
2022/12/05 09:24:42;;;;;;;28.05;16.42;;;;;;;6.35;82.30;100624.09;5012186;28;20403;-75
2022/12/05 09:27:07;;;;;;;30.70;16.90;;;;;;;6.39;82.17;100626.13;5014865;28;20420;-75
2022/12/05 09:29:32;;;;;;;30.30;16.70;;;;;;;6.38;82.13;100637.97;5010053;28;20557;-75
2022/12/05 09:31:58;;;;;;;30.60;16.47;;;;;;;6.41;82.20;100632.16;5007157;28;20951;-75
2022/12/05 09:34:24;;;;;;;31.70;15.97;;;;;;;6.40;82.59;100646.63;5010403;28;20910;-74
2022/12/05 09:36:51;;;;;;;27.42;16.00;;;;;;;6.41;82.57;100642.91;5007115;28;20413;-74
2022/12/05 09:39:16;;;;;;;28.42;17.00;;;;;;;6.32;82.54;100654.97;5008787;28;20419;-75
2022/12/05 09:42:09;;;;;;;33.30;17.10;;;;;;;6.36;82.39;100656.16;5012540;28;20412;-74
2022/12/05 09:44:47;;;;;;;26.52;16.20;;;;;;;6.41;82.41;100659.06;5013363;28;20416;-75
2022/12/05 09:47:30;;;;;;;30.93;17.67;;;;;;;6.39;82.17;100649.56;5012433;28;21028;-75
2022/12/05 09:49:56;;;;;;;30.20;16.25;;;;;;;6.45;82.30;100640.63;5015289;28;20411;-74
2022/12/05 09:52:26;;;;;;;30.93;16.10;;;;;;;6.57;82.36;100642.44;5016394;28;20400;-74
2022/12/05 09:54:52;;;;;;;27.70;16.10;;;;;;;6.63;82.09;100643.44;4999070;28;20422;-75
2022/12/05 09:57:28;;;;;;;30.80;16.33;;;;;;;6.61;82.59;100648.22;4992096;28;20413;-75
2022/12/05 09:59:53;;;;;;;30.87;16.60;;;;;;;6.68;82.00;100644.47;4991564;28;20434;-75
2022/12/05 10:02:31;;;;;;;28.40;15.87;;;;;;;6.65;82.25;100641.38;4990927;28;20915;-75
2022/12/05 10:05:10;;;;;;;31.65;16.48;;;;;;;6.71;82.20;100637.81;4992495;28;20416;-75
2022/12/05 10:07:56;;;;;;;26.33;15.70;;;;;;;6.75;82.33;100647.91;4991711;28;20421;-75
2022/12/05 10:10:46;;;;;;;31.05;15.95;;;;;;;6.67;82.12;100644.66;4990283;28;20498;-75
2022/12/05 10:13:50;;;;;;;30.83;16.17;;;;;;;6.71;82.47;100638.63;4991183;28;20830;-75
2022/12/05 10:16:31;;;;;;;27.77;15.73;;;;;;;6.70;82.63;100636.97;4996242;28;20436;-75
2022/12/05 10:19:12;;;;;;;31.75;16.80;;;;;;;6.72;82.56;100645.66;4990386;28;20454;-75
2022/12/05 10:21:44;;;;;;;30.20;16.15;;;;;;;6.67;81.88;100642.78;4993195;28;20422;-75
2022/12/05 10:24:14;;;;;;;29.40;16.40;;;;;;;6.65;82.43;100641.38;4990782;28;20418;-75
2022/12/05 10:26:45;;;;;;;30.17;16.23;;;;;;;6.65;83.08;100628.69;4988845;28;20798;-74
2022/12/05 10:29:16;;;;;;;27.55;15.70;;;;;;;6.84;82.35;100628.81;4990940;28;20409;-74
2022/12/05 10:31:44;;;;;;;27.85;15.43;;;;;;;6.89;82.06;100631.69;4991866;28;20422;-75
2022/12/05 10:34:17;;;;;;;27.73;14.85;;;;;;;6.99;81.54;100624.78;4996605;28;20407;-75
2022/12/05 10:36:55;;;;;;;29.38;16.25;;;;;;;7.06;81.38;100619.34;4991199;28;20495;-74
2022/12/05 10:39:21;;;;;;;26.83;15.40;;;;;;;7.12;81.52;100623.84;4988481;28;20410;-74
2022/12/05 10:41:46;;;;;;;24.08;15.48;;;;;;;7.12;80.70;100624.69;4989211;28;20449;-74
2022/12/05 10:44:12;;;;;;;30.83;16.02;;;;;;;7.20;80.99;100627.13;4988083;28;21172;-75
2022/12/05 10:46:37;;;;;;;28.93;15.30;;;;;;;7.16;81.54;100634.00;4990460;28;20413;-74
2022/12/05 10:49:10;;;;;;;31.00;16.23;;;;;;;7.21;81.10;100625.25;4988757;28;20429;-75
2022/12/05 10:51:35;;;;;;;28.67;16.65;;;;;;;7.26;81.17;100634.34;4989678;28;20413;-74
2022/12/05 10:54:01;;;;;;;26.93;16.10;;;;;;;7.29;80.68;100633.06;4993497;28;20431;-74
2022/12/05 10:56:40;;;;;;;29.88;16.20;;;;;;;7.28;80.87;100637.63;5008287;28;20416;-74
2022/12/05 10:59:08;;;;;;;27.30;16.30;;;;;;;7.24;81.29;100644.50;5001053;28;20441;-74
2022/12/05 11:01:35;;;;;;;28.08;16.30;;;;;;;7.23;81.04;100639.34;4989968;28;20508;-74
2022/12/05 11:04:16;;;;;;;29.20;16.42;;;;;;;7.25;80.58;100635.38;4991369;28;20428;-74
2022/12/05 11:06:50;;;;;;;28.83;15.85;;;;;;;7.26;81.46;100636.19;4992916;28;20414;-74
2022/12/05 11:09:25;;;;;;;29.77;15.50;;;;;;;7.18;81.29;100634.59;4991889;28;20442;-74
2022/12/05 11:12:18;;;;;;;28.87;15.50;;;;;;;7.21;81.56;100633.34;4992963;28;20406;-74
2022/12/05 11:15:03;;;;;;;24.63;14.80;;;;;;;7.29;81.27;100625.81;5022378;28;20406;-74
2022/12/05 11:17:34;;;;;;;25.02;15.68;;;;;;;7.27;81.27;100629.78;4993038;28;21008;-74
2022/12/05 11:20:02;;;;;;;25.38;14.75;;;;;;;7.24;81.24;100631.00;4992581;28;20492;-74
2022/12/05 11:22:33;;;;;;;22.02;13.45;;;;;;;7.26;81.26;100628.94;4993297;28;21011;-74
2022/12/05 11:24:58;;;;;;;26.50;14.55;;;;;;;7.29;81.44;100623.13;4996149;28;20409;-74
2022/12/05 11:27:28;;;;;;;25.25;15.15;;;;;;;7.29;80.79;100625.81;4992980;28;20418;-74
2022/12/05 11:30:13;;;;;;;24.93;14.93;;;;;;;7.36;81.01;100630.31;5033455;28;20479;-74
2022/12/05 11:32:39;;;;;;;24.42;14.68;;;;;;;7.40;81.00;100631.53;5003713;28;20414;-74
2022/12/05 11:35:10;;;;;;;26.50;15.70;;;;;;;7.44;81.17;100625.50;4993429;28;20411;-74
2022/12/05 11:37:55;;;;;;;24.95;14.80;;;;;;;7.53;81.10;100628.72;5000243;28;20405;-74